Flight Track Log - Related Links

Times and Time Zones

All times are in EDT time to prevent confusion due to time zone crossing. See the N509QS flight status page for this flight to view local times or setup timezone preferences in your user account.

Time Position Orientation Groundspeed Altitude Reporting Facility
EDT Latitude Longitude Course Direction KTS MPH feet Rate Location/Type
Mon 12:05:08 AM 41.1167 -73.7667 56° Northeast 205 236 4,700  Level New York TRACON
Mon 12:06:14 AM 41.1500 -73.7000 56° Northeast 301 346 8,000 2,657 Climbing New York TRACON
Mon 12:08:38 AM 41.2686 -73.4261 60° Northeast 356 410 14,000 2,382 Climbing Boston Center
Mon 12:09:38 AM 41.3239 -73.2886 62° Northeast 404 465 16,100 2,350 Climbing Boston Center
Mon 12:10:00 AM 41.4716 -72.9069 56° Northeast  Level FlightAware Approximate
Mon 12:10:38 AM 41.3792 -73.1511 62° Northeast 442 509 18,700  Level Boston Center
Mon 12:11:38 AM 41.4444 -72.9939 61° Northeast 459 528 21,100 2,400 Climbing Boston Center
Mon 12:12:38 AM 41.5139 -72.8367 59° Northeast 480 552 23,500 2,100 Climbing Boston Center
Mon 12:13:38 AM 41.5997 -72.6900 52° Northeast 501 577 25,300 1,950 Climbing Boston Center
Mon 12:14:38 AM 41.7106 -72.5486 44° Northeast 526 605 27,400 1,950 Climbing Boston Center
Mon 12:15:38 AM 41.8231 -72.4039 44° Northeast 537 618 29,200 1,950 Climbing Boston Center
Mon 12:16:38 AM 41.9397 -72.2558 43° Northeast 555 639 31,300 1,800 Climbing Boston Center
Mon 12:17:38 AM 42.0519 -72.1044 45° Northeast 561 646 32,800 1,800 Climbing Boston Center
Mon 12:18:38 AM 42.1681 -71.9583 43° Northeast 561 646 34,900 2,000 Climbing Boston Center
Mon 12:19:38 AM 42.2819 -71.8086 44° Northeast 561 646 36,800 1,600 Climbing Boston Center
Mon 12:20:38 AM 42.3956 -71.6586 44° Northeast 561 646 38,100 1,450 Climbing Boston Center
Mon 12:21:38 AM 42.5236 -71.4964 43° Northeast 556 640 39,700 1,350 Climbing Boston Center
Mon 12:22:38 AM 42.6306 -71.3508 45° Northeast 556 640 40,800 650 Climbing Boston Center
Mon 12:23:38 AM 42.7439 -71.1989 45° Northeast 556 640 41,000 100 Climbing Boston Center
Mon 12:24:38 AM 42.8567 -71.0494 44° Northeast 556 640 41,000  Level Boston Center
Mon 12:25:38 AM 42.9714 -70.8936 45° Northeast 556 640 41,000  Level Boston Center
Mon 12:27:00 AM 43.1132 -70.7001 45° Northeast  Level FlightAware Approximate
Mon 12:27:52 AM 43.2167 -70.5667 45° Northeast 590 679 41,000  Level Moncton Center
Mon 12:28:52 AM 43.3167 -70.4000 50° Northeast 590 679 41,000  Level Moncton Center
Mon 12:29:52 AM 43.4333 -70.2500 43° Northeast 580 667 41,000  Level Moncton Center
Mon 12:30:52 AM 43.5333 -70.1000 47° Northeast 590 679 41,000  Level Moncton Center
Mon 12:31:52 AM 43.6667 -69.9167 45° Northeast 580 667 41,000  Level Moncton Center
Mon 12:32:52 AM 43.7667 -69.7667 47° Northeast 570 656 41,000 -50 Level Moncton Center
Mon 12:33:52 AM 43.8667 -69.6167 47° Northeast 570 656 40,900  Descending Moncton Center
Mon 12:34:52 AM 43.9667 -69.4667 47° Northeast 570 656 41,000 50 Climbing Moncton Center
Mon 12:35:52 AM 44.1000 -69.3167 39° Northeast 570 656 41,000  Level Moncton Center
Mon 12:36:52 AM 44.2000 -69.1500 50° Northeast 570 656 41,000  Level Moncton Center
Mon 12:37:52 AM 44.3333 -68.9833 42° Northeast 580 667 41,000  Level Moncton Center
Mon 12:38:52 AM 44.4333 -68.8000 53° Northeast 570 656 41,000  Level Moncton Center
Mon 12:39:52 AM 44.5333 -68.6667 44° Northeast 570 656 41,000  Level Moncton Center
Mon 12:40:52 AM 44.6500 -68.4833 48° Northeast 560 644 41,000  Level Moncton Center
Mon 12:41:52 AM 44.7500 -68.3333 47° Northeast 560 644 41,000  Level Moncton Center
Mon 12:42:52 AM 44.8500 -68.1667 50° Northeast 570 656 41,000  Level Moncton Center
Mon 12:43:52 AM 44.9667 -68.0167 42° Northeast 560 644 41,000  Level Moncton Center
Mon 12:44:52 AM 45.0667 -67.8500 50° Northeast 560 644 41,000  Level Moncton Center
Mon 12:45:52 AM 45.1667 -67.7000 47° Northeast 550 633 41,000  Level Moncton Center
Mon 12:46:52 AM 45.2833 -67.5333 45° Northeast 560 644 41,000  Level Moncton Center
Mon 12:47:52 AM 45.4000 -67.3833 42° Northeast 560 644 41,000  Level Moncton Center
Mon 12:48:52 AM 45.4833 -67.2167 54° Northeast 560 644 41,000  Level Moncton Center
Mon 12:49:52 AM 45.6000 -67.0500 45° Northeast 550 633 41,000  Level Moncton Center
Mon 12:50:52 AM 45.7000 -66.8833 49° Northeast 550 633 41,000  Level Moncton Center
Mon 12:51:52 AM 45.8000 -66.7333 46° Northeast 550 633 41,000  Level Moncton Center
Mon 12:52:52 AM 45.9000 -66.5667 49° Northeast 550 633 41,000  Level Moncton Center
Mon 12:53:52 AM 46.0167 -66.4000 45° Northeast 550 633 41,000  Level Moncton Center
Mon 12:54:52 AM 46.1167 -66.2333 49° Northeast 550 633 41,000  Level Moncton Center
Mon 12:55:52 AM 46.2167 -66.0667 49° Northeast 550 633 41,000  Level Moncton Center
Mon 12:56:52 AM 46.3167 -65.9000 49° Northeast 550 633 41,000  Level Moncton Center
Mon 12:57:52 AM 46.4167 -65.7333 49° Northeast 550 633 41,000  Level Moncton Center
Mon 12:58:52 AM 46.5167 -65.5667 49° Northeast 550 633 41,000  Level Moncton Center
Mon 12:59:52 AM 46.6167 -65.4000 49° Northeast 550 633 41,000  Level Moncton Center
Mon 01:00:52 AM 46.7333 -65.2333 44° Northeast 550 633 41,000 -50 Level Moncton Center
Mon 01:01:52 AM 46.8333 -65.0500 51° Northeast 550 633 40,900 100 Descending Moncton Center
Mon 01:02:52 AM 46.9333 -64.8833 49° Northeast 550 633 41,200 700 Climbing Moncton Center
Mon 01:03:52 AM 47.0333 -64.7167 49° Northeast 540 621 42,300 800 Climbing Moncton Center
Mon 01:04:52 AM 47.1333 -64.5500 49° Northeast 530 610 42,800 400 Climbing Moncton Center
Mon 01:05:52 AM 47.2333 -64.3667 51° Northeast 530 610 43,100 350 Climbing Moncton Center
Mon 01:06:52 AM 47.3167 -64.2167 51° Northeast 540 621 43,500 300 Climbing Moncton Center
Mon 01:07:52 AM 47.4167 -64.0500 48° Northeast 540 621 43,700 300 Climbing Moncton Center
Mon 01:08:52 AM 47.5167 -63.8833 48° Northeast 530 610 44,100 250 Climbing Moncton Center
Mon 01:09:52 AM 47.6000 -63.7333 50° Northeast 540 621 44,200 100 Climbing Moncton Center
Mon 01:10:52 AM 47.7167 -63.5500 47° Northeast 540 621 44,300 100 Climbing Moncton Center
Mon 01:11:52 AM 47.8000 -63.3833 53° Northeast 540 621 44,400 150 Climbing Moncton Center
Mon 01:12:52 AM 47.9000 -63.2000 51° Northeast 540 621 44,600 186 Climbing Moncton Center
Mon 01:13:29 AM 47.9500 -63.1000 53° Northeast 540 621 44,700 100 Climbing Gander Center
Mon 01:13:52 AM 48.0000 -63.0167 48° Northeast 540 621 44,700 217 Level Moncton Center
Mon 01:14:52 AM 48.0833 -62.8667 50° Northeast 540 621 45,000 150 Climbing Moncton Center
Mon 01:15:52 AM 48.1833 -62.6833 51° Northeast 540 621 45,000  Level Moncton Center
Mon 01:16:29 AM 48.2333 -62.5667 57° Northeast 540 621 45,000  Level Gander Center
Mon 01:16:52 AM 48.2667 -62.5167 45° Northeast 540 621 45,000  Level Moncton Center
Mon 01:17:52 AM 48.3667 -62.3333 51° Northeast 540 621 45,000  Level Moncton Center
Mon 01:18:52 AM 48.4667 -62.1500 51° Northeast 540 621 45,000  Level Moncton Center
Mon 01:19:29 AM 48.5333 -62.0333 49° Northeast 530 610 45,000  Level Gander Center
Mon 01:20:29 AM 48.6167 -61.8667 53° Northeast 540 621 45,000  Level Gander Center
Mon 01:21:29 AM 48.7167 -61.6833 50° Northeast 540 621 45,000  Level Gander Center
Mon 01:22:29 AM 48.8000 -61.5167 53° Northeast 540 621 45,000  Level Gander Center
Mon 01:22:52 AM 48.8333 -61.4500 53° Northeast 530 610 45,000  Level Moncton Center
Mon 01:23:52 AM 48.9333 -61.2667 50° Northeast 540 621 45,000  Level Moncton Center
Mon 01:24:52 AM 49.0333 -61.0833 50° Northeast 540 621 45,000  Level Moncton Center
Mon 01:25:52 AM 49.1167 -60.8833 57° Northeast 540 621 45,000  Level Moncton Center
Mon 01:26:52 AM 49.2167 -60.7333 44° Northeast 540 621 45,000  Level Moncton Center
Mon 01:27:29 AM 49.2667 -60.6167 57° Northeast 540 621 45,000  Level Gander Center
Mon 01:28:29 AM 49.3667 -60.4333 50° Northeast 540 621 45,000  Level Gander Center
Mon 01:28:52 AM 49.3833 -60.3500 73° East 540 621 45,000  Level Moncton Center
Mon 01:29:52 AM 49.4833 -60.1667 50° Northeast 540 621 45,000  Level Moncton Center
Mon 01:30:29 AM 49.5500 -60.0667 44° Northeast 540 621 45,000  Level Gander Center
Mon 01:31:29 AM 49.6333 -59.8833 55° Northeast 540 621 45,000  Level Gander Center
Mon 01:31:52 AM 49.6667 -59.8167 52° Northeast 540 621 45,000  Level Moncton Center
Mon 01:32:52 AM 49.7500 -59.6333 55° Northeast 540 621 45,000  Level Moncton Center
Mon 01:33:52 AM 49.8500 -59.4333 52° Northeast 540 621 45,000  Level Moncton Center
Mon 01:34:29 AM 49.9000 -59.3167 56° Northeast 540 621 45,000  Level Gander Center
Mon 01:35:29 AM 50.0000 -59.1167 52° Northeast 530 610 45,000  Level Gander Center
Mon 01:36:29 AM 50.0833 -58.9667 49° Northeast 530 610 45,000  Level Gander Center
Mon 01:37:29 AM 50.1833 -58.7500 54° Northeast 540 621 45,000  Level Gander Center
Mon 01:38:29 AM 50.2500 -58.5667 60° Northeast 530 610 45,000  Level Gander Center
Mon 01:38:52 AM 50.2833 -58.5000 52° Northeast 530 610 45,000  Level Moncton Center
Mon 01:39:29 AM 50.3333 -58.3667 60° Northeast 530 610 45,000  Level Gander Center
Mon 01:39:52 AM 50.3500 -58.3000 69° East 530 610 45,000  Level Moncton Center
Mon 01:40:29 AM 50.4167 -58.1833 48° Northeast 530 610 45,000  Level Gander Center
Mon 01:41:29 AM 50.4833 -58.0000 60° Northeast 530 610 45,000  Level Gander Center
Mon 01:42:29 AM 50.5667 -57.7833 59° Northeast 530 610 45,000  Level Gander Center
Mon 01:43:29 AM 50.6500 -57.5833 57° Northeast 530 610 45,000  Level Gander Center
Mon 01:43:47 AM 50.6833 -57.5333 44° Northeast 530 610 45,000  Level Gander Center
Mon 01:44:29 AM 50.7167 -57.3667 72° East 540 621 45,000  Level Gander Center
Mon 01:44:52 AM 50.7500 -57.3333 32° Northeast 540 621 45,000  Level Moncton Center
Mon 01:45:52 AM 50.8333 -57.1000 60° Northeast 530 610 45,000  Level Moncton Center
Mon 01:46:29 AM 50.9000 -56.9833 48° Northeast 530 610 45,000  Level Gander Center
Mon 01:47:29 AM 50.9500 -56.8000 67° East 530 610 45,000  Level Gander Center
Mon 01:48:29 AM 51.0333 -56.6000 56° Northeast 530 610 45,000  Level Gander Center
Mon 01:48:47 AM 51.0667 -56.5500 43° Northeast 530 610 45,000  Level Gander Center
Mon 01:49:47 AM 51.1333 -56.3167 65° Northeast 530 610 45,000  Level Gander Center
Mon 01:50:47 AM 51.2167 -56.1333 54° Northeast 530 610 45,000  Level Gander Center
Mon 01:51:29 AM 51.2667 -55.9833 62° Northeast 530 610 45,000  Level Gander Center
Mon 01:52:29 AM 51.3333 -55.8000 60° Northeast 530 610 45,000  Level Gander Center
Mon 01:53:29 AM 51.4167 -55.5667 60° Northeast 530 610 45,000  Level Gander Center
Mon 01:54:29 AM 51.5000 -55.4000 51° Northeast 530 610 45,000  Level Gander Center
Mon 01:54:47 AM 51.5000 -55.3167 90° East 530 610 45,000  Level Gander Center
Mon 01:55:47 AM 51.5833 -55.1167 56° Northeast 530 610 45,000  Level Gander Center
Mon 01:56:29 AM 51.6333 -54.9667 62° Northeast 520 598 45,000  Level Gander Center
Mon 01:57:29 AM 51.7167 -54.7500 58° Northeast 530 610 45,000  Level Gander Center
Mon 01:58:29 AM 51.7833 -54.5500 62° Northeast 530 610 45,000  Level Gander Center
Mon 01:58:47 AM 51.8167 -54.4833 51° Northeast 530 610 45,000  Level Gander Center
Mon 01:59:29 AM 51.8500 -54.3500 68° East 530 610 45,000  Level Gander Center
Mon 01:59:47 AM 51.8833 -54.2833 51° Northeast 530 610 45,000  Level Gander Center
Mon 02:00:47 AM 51.9333 -54.0833 68° East 530 610 45,000  Level Gander Center
Mon 02:01:29 AM 52.0000 -53.9333 54° Northeast 540 621 45,000  Level Gander Center
Mon 02:02:29 AM 52.0667 -53.7167 63° Northeast 530 610 45,000  Level Gander Center
Mon 02:02:47 AM 52.1000 -53.6500 51° Northeast 530 610 45,000  Level Gander Center
Mon 02:03:29 AM 52.1333 -53.5000 70° East 530 610 45,000  Level Gander Center
Mon 02:04:29 AM 52.2167 -53.3000 56° Northeast 530 610 45,000  Level Gander Center
Mon 02:04:47 AM 52.2167 -53.2500 90° East 530 610 45,000  Level Gander Center
Mon 02:05:29 AM 52.2667 -53.0667 66° East 530 610 45,000  Level Gander Center
Mon 02:06:29 AM 52.3167 -52.8667 68° East 520 598 45,000  Level Gander Center
Mon 02:06:47 AM 52.3333 -52.7833 72° East 520 598 45,000  Level Gander Center
Mon 02:07:29 AM 52.3833 -52.6333 61° Northeast 530 610 45,000  Level Gander Center
Mon 02:07:47 AM 52.4000 -52.5833 61° Northeast 520 598 45,000  Level Gander Center
Mon 02:08:47 AM 52.4500 -52.3500 71° East 530 610 45,000  Level Gander Center
Mon 02:09:29 AM 52.4833 -52.2000 70° East 520 598 45,000  Level Gander Center
Mon 02:10:29 AM 52.5333 -51.9667 71° East 530 610 45,000  Level Gander Center
Mon 02:11:29 AM 52.6000 -51.7333 65° Northeast 530 610 45,000  Level Gander Center
Mon 02:12:29 AM 52.6500 -51.5000 70° East 530 610 45,000  Level Gander Center
Mon 02:13:29 AM 52.6833 -51.3000 75° East 520 598 45,000  Level Gander Center
Mon 02:14:29 AM 52.7500 -51.0667 65° Northeast 530 610 45,000  Level Gander Center
Mon 02:15:29 AM 52.7833 -50.8333 77° East 530 610 45,000  Level Gander Center
Mon 02:16:29 AM 52.8500 -50.6167 63° Northeast 540 621 45,000  Level Gander Center
Mon 02:17:29 AM 52.9000 -50.3833 70° East 540 621 45,000  Level Gander Center
Mon 02:18:29 AM 52.9500 -50.1500 70° East 530 610 45,000  Level Gander Center
Mon 02:19:29 AM 53.0000 -49.9167 70° East 530 610 45,000  Level Gander Center
Mon 02:21:00 AM 53.0000 -50.0000 76° East 529 609 45,000  Level ETMS Enhanced Traffic Management System
Mon 02:27:00 AM 53.2905 -47.8482 78° East 529 609 45,000  Level FlightAware Transoceanic
Mon 02:28:00 AM 53.3203 -47.6073 78° East 529 609 45,000  Level FlightAware Transoceanic
Mon 02:29:00 AM 53.3497 -47.3661 79° East 529 609 45,000  Level FlightAware Transoceanic
Mon 02:30:00 AM 53.3786 -47.1246 79° East 529 609 45,000  Level FlightAware Transoceanic
Mon 02:31:00 AM 53.4070 -46.8828 79° East 529 609 45,000  Level FlightAware Transoceanic
Mon 02:32:00 AM 53.4349 -46.6406 79° East 529 609 45,000  Level FlightAware Transoceanic
Mon 02:33:00 AM 53.4623 -46.3982 79° East 529 609 45,000  Level FlightAware Transoceanic
Mon 02:34:00 AM 53.4893 -46.1554 80° East 529 609 45,000  Level FlightAware Transoceanic
Mon 02:35:00 AM 53.5157 -45.9123 80° East 529 609 45,000  Level FlightAware Transoceanic
Mon 02:36:00 AM 53.5417 -45.6689 80° East 529 609 45,000  Level FlightAware Transoceanic
Mon 02:37:00 AM 53.5671 -45.4252 80° East 529 609 45,000  Level FlightAware Transoceanic
Mon 02:38:00 AM 53.5921 -45.1812 80° East 529 609 45,000  Level FlightAware Transoceanic
Mon 02:39:00 AM 53.6165 -44.9370 81° East 529 609 45,000  Level FlightAware Transoceanic
Mon 02:40:00 AM 53.6405 -44.6924 81° East 529 609 45,000  Level FlightAware Transoceanic
Mon 02:41:00 AM 53.6640 -44.4476 81° East 529 609 45,000  Level FlightAware Transoceanic
Mon 02:42:00 AM 53.6869 -44.2025 81° East 529 609 45,000  Level FlightAware Transoceanic
Mon 02:43:00 AM 53.7094 -43.9571 81° East 529 609 45,000  Level FlightAware Transoceanic
Mon 02:44:00 AM 53.7314 -43.7115 82° East 529 609 45,000  Level FlightAware Transoceanic
Mon 02:45:00 AM 53.7528 -43.4657 82° East 529 609 45,000  Level FlightAware Transoceanic
Mon 02:46:00 AM 53.7738 -43.2196 82° East 529 609 45,000  Level FlightAware Transoceanic
Mon 02:47:00 AM 53.7942 -42.9732 82° East 529 609 45,000  Level FlightAware Transoceanic
Mon 02:48:00 AM 53.8142 -42.7266 82° East 529 609 45,000  Level FlightAware Transoceanic
Mon 02:49:00 AM 53.8336 -42.4798 82° East 529 609 45,000  Level FlightAware Transoceanic
Mon 02:50:00 AM 53.8526 -42.2327 83° East 529 609 45,000  Level FlightAware Transoceanic
Mon 02:51:00 AM 53.8710 -41.9855 83° East 529 609 45,000  Level FlightAware Transoceanic
Mon 02:52:00 AM 53.8889 -41.7380 83° East 529 609 45,000  Level FlightAware Transoceanic
Mon 02:53:00 AM 53.9063 -41.4903 83° East 529 609 45,000  Level FlightAware Transoceanic
Mon 02:54:00 AM 53.9232 -41.2424 83° East 529 609 45,000  Level FlightAware Transoceanic
Mon 02:55:00 AM 53.9396 -40.9943 84° East 529 609 45,000  Level FlightAware Transoceanic
Mon 02:56:00 AM 53.9554 -40.7460 84° East 529 609 45,000  Level FlightAware Transoceanic
Mon 02:57:00 AM 53.9708 -40.4975 84° East 529 609 45,000  Level FlightAware Transoceanic
Mon 02:58:00 AM 53.9857 -40.2488 84° East 529 609 45,000  Level FlightAware Transoceanic
Mon 02:59:00 AM 53.9998 -40.0043 84° East  Level FlightAware Approximate
Mon 03:00:00 AM 54.0132 -39.7595 85° East  Level FlightAware Approximate
Mon 03:01:00 AM 54.0096 -39.7634 86° East  Level FlightAware Approximate
Mon 03:02:00 AM 54.0191 -39.5180 86° East  Level FlightAware Approximate
Mon 03:03:00 AM 54.0280 -39.2726 86° East  Level FlightAware Approximate
Mon 03:03:00 AM 54.0000 -40.0000 86° East 528 608 45,000  Level ETMS Enhanced Traffic Management System
Mon 03:04:00 AM 54.0365 -39.0271 87° East  Level FlightAware Approximate
Mon 03:05:00 AM 54.0445 -38.7814 87° East  Level FlightAware Approximate
Mon 03:06:00 AM 54.0520 -38.5357 87° East  Level FlightAware Approximate
Mon 03:07:00 AM 54.0589 -38.2899 87° East  Level FlightAware Approximate
Mon 03:08:00 AM 54.0654 -38.0440 87° East  Level FlightAware Approximate
Mon 03:09:00 AM 54.0724 -37.7532 88° East 528 608 45,000  Level FlightAware Transoceanic
Mon 03:10:00 AM 54.0778 -37.5031 88° East 528 608 45,000  Level FlightAware Transoceanic
Mon 03:11:00 AM 54.0828 -37.2530 88° East 528 608 45,000  Level FlightAware Transoceanic
Mon 03:12:00 AM 54.0872 -37.0028 88° East 528 608 45,000  Level FlightAware Transoceanic
Mon 03:13:00 AM 54.0911 -36.7526 89° East 528 608 45,000  Level FlightAware Transoceanic
Mon 03:14:00 AM 54.0945 -36.5023 89° East 528 608 45,000  Level FlightAware Transoceanic
Mon 03:15:00 AM 54.0973 -36.2519 89° East 528 608 45,000  Level FlightAware Transoceanic
Mon 03:16:00 AM 54.0997 -36.0016 89° East 528 608 45,000  Level FlightAware Transoceanic
Mon 03:17:00 AM 54.1015 -35.7512 89° East 528 608 45,000  Level FlightAware Transoceanic
Mon 03:18:00 AM 54.1028 -35.5008 90° East 528 608 45,000  Level FlightAware Transoceanic
Mon 03:19:00 AM 54.1035 -35.2504 90° East 528 608 45,000  Level FlightAware Transoceanic
Mon 03:20:00 AM 54.1038 -35.0000 90° East 528 608 45,000  Level FlightAware Transoceanic
Mon 03:21:00 AM 54.1035 -34.7496 90° East 528 608 45,000  Level FlightAware Transoceanic
Mon 03:22:00 AM 54.1028 -34.4992 90° East 528 608 45,000  Level FlightAware Transoceanic
Mon 03:23:00 AM 54.1015 -34.2488 91° East 528 608 45,000  Level FlightAware Transoceanic
Mon 03:24:00 AM 54.0997 -33.9984 91° East 528 608 45,000  Level FlightAware Transoceanic
Mon 03:25:00 AM 54.0973 -33.7481 91° East 528 608 45,000  Level FlightAware Transoceanic
Mon 03:26:00 AM 54.0945 -33.4977 91° East 528 608 45,000  Level FlightAware Transoceanic
Mon 03:27:00 AM 54.0911 -33.2474 91° East 528 608 45,000  Level FlightAware Transoceanic
Mon 03:28:00 AM 54.0872 -32.9972 92° East 528 608 45,000  Level FlightAware Transoceanic
Mon 03:29:00 AM 54.0828 -32.7470 92° East 528 608 45,000  Level FlightAware Transoceanic
Mon 03:30:00 AM 54.0778 -32.4969 92° East 528 608 45,000  Level FlightAware Transoceanic
Mon 03:31:00 AM 54.0724 -32.2468 92° East 528 608 45,000  Level FlightAware Transoceanic
Mon 03:32:00 AM 54.0664 -31.9968 92° East 528 608 45,000  Level FlightAware Transoceanic
Mon 03:33:00 AM 54.0599 -31.7469 93° East 528 608 45,000  Level FlightAware Transoceanic
Mon 03:34:00 AM 54.0529 -31.4970 93° East 528 608 45,000  Level FlightAware Transoceanic
Mon 03:35:00 AM 54.0454 -31.2473 93° East 528 608 45,000  Level FlightAware Transoceanic
Mon 03:36:00 AM 54.0373 -30.9976 93° East 528 608 45,000  Level FlightAware Transoceanic
Mon 03:37:00 AM 54.0288 -30.7480 93° East 528 608 45,000  Level FlightAware Transoceanic
Mon 03:38:00 AM 54.0197 -30.4986 94° East 528 608 45,000  Level FlightAware Transoceanic
Mon 03:39:00 AM 54.0101 -30.2492 94° East 528 608 45,000  Level FlightAware Transoceanic
Mon 03:40:00 AM 54.0002 -30.0040 94° East  Level FlightAware Approximate
Mon 03:41:00 AM 53.9896 -29.7589 94° East  Level FlightAware Approximate
Mon 03:42:00 AM 53.9862 -29.7635 96° East  Level FlightAware Approximate
Mon 03:43:00 AM 53.9715 -29.5191 96° East  Level FlightAware Approximate
Mon 03:44:00 AM 53.9563 -29.2749 96° East  Level FlightAware Approximate
Mon 03:45:00 AM 53.9405 -29.0309 96° East  Level FlightAware Approximate
Mon 03:45:00 AM 54.0000 -30.0000 95° East 542 624 45,000  Level ETMS Enhanced Traffic Management System
Mon 03:46:00 AM 53.9243 -28.7871 96° East  Level FlightAware Approximate
Mon 03:47:00 AM 53.9076 -28.5435 97° East  Level FlightAware Approximate
Mon 03:48:00 AM 53.8904 -28.3001 97° East  Level FlightAware Approximate
Mon 03:49:00 AM 53.8727 -28.0568 97° East  Level FlightAware Approximate
Mon 03:50:00 AM 53.8545 -27.8138 97° East  Level FlightAware Approximate
Mon 03:51:00 AM 53.8288 -27.4585 98° East 542 624 45,000  Level FlightAware Transoceanic
Mon 03:52:00 AM 53.8087 -27.2056 98° East 542 624 45,000  Level FlightAware Transoceanic
Mon 03:53:00 AM 53.7882 -26.9529 98° East 542 624 45,000  Level FlightAware Transoceanic
Mon 03:54:00 AM 53.7670 -26.7004 98° East 542 624 45,000  Level FlightAware Transoceanic
Mon 03:55:00 AM 53.7454 -26.4482 98° East 542 624 45,000  Level FlightAware Transoceanic
Mon 03:56:00 AM 53.7232 -26.1963 99° East 542 624 45,000  Level FlightAware Transoceanic
Mon 03:57:00 AM 53.7005 -25.9447 99° East 542 624 45,000  Level FlightAware Transoceanic
Mon 03:58:00 AM 53.6772 -25.6933 99° East 542 624 45,000  Level FlightAware Transoceanic
Mon 03:59:00 AM 53.6535 -25.4422 99° East 542 624 45,000  Level FlightAware Transoceanic
Mon 04:00:00 AM 53.6292 -25.1914 99° East 542 624 45,000  Level FlightAware Transoceanic
Mon 04:01:00 AM 53.6044 -24.9409 100° East 542 624 45,000  Level FlightAware Transoceanic
Mon 04:02:00 AM 53.5790 -24.6907 100° East 542 624 45,000  Level FlightAware Transoceanic
Mon 04:03:00 AM 53.5532 -24.4407 100° East 542 624 45,000  Level FlightAware Transoceanic
Mon 04:04:00 AM 53.5268 -24.1911 100° East 542 624 45,000  Level FlightAware Transoceanic
Mon 04:05:00 AM 53.4999 -23.9418 100° East 542 624 45,000  Level FlightAware Transoceanic
Mon 04:06:00 AM 53.4725 -23.6929 101° East 542 624 45,000  Level FlightAware Transoceanic
Mon 04:07:00 AM 53.4446 -23.4442 101° East 542 624 45,000  Level FlightAware Transoceanic
Mon 04:08:00 AM 53.4161 -23.1959 101° East 542 624 45,000  Level FlightAware Transoceanic
Mon 04:09:00 AM 53.3872 -22.9479 101° East 542 624 45,000  Level FlightAware Transoceanic
Mon 04:10:00 AM 53.3577 -22.7003 101° East 542 624 45,000  Level FlightAware Transoceanic
Mon 04:11:00 AM 53.3277 -22.4529 102° East 542 624 45,000  Level FlightAware Transoceanic
Mon 04:12:00 AM 53.2972 -22.2060 102° East 542 624 45,000  Level FlightAware Transoceanic
Mon 04:13:00 AM 53.2662 -21.9594 102° East 542 624 45,000  Level FlightAware Transoceanic
Mon 04:14:00 AM 53.2347 -21.7132 102° East 542 624 45,000  Level FlightAware Transoceanic
Mon 04:15:00 AM 53.2027 -21.4673 102° East 542 624 45,000  Level FlightAware Transoceanic
Mon 04:16:00 AM 53.1702 -21.2218 103° East 542 624 45,000  Level FlightAware Transoceanic
Mon 04:17:00 AM 53.1371 -20.9767 103° East 542 624 45,000  Level FlightAware Transoceanic
Mon 04:18:00 AM 53.1036 -20.7319 103° East 542 624 45,000  Level FlightAware Transoceanic
Mon 04:19:00 AM 53.0696 -20.4876 103° East 542 624 45,000  Level FlightAware Transoceanic
Mon 04:20:00 AM 53.0350 -20.2436 103° East 542 624 45,000 -33 Level FlightAware Transoceanic
Mon 04:21:00 AM 53.0014 -20.0100 103° East  Level FlightAware Approximate
Mon 04:22:00 AM 52.9675 -19.7768 104° East  Level FlightAware Approximate
Mon 04:23:00 AM 52.9993 -19.7806 90° East  Level FlightAware Approximate
Mon 04:24:00 AM 52.9981 -19.5406 90° East  Level FlightAware Approximate
Mon 04:25:00 AM 52.9963 -19.3005 91° East  Level FlightAware Approximate
Mon 04:26:00 AM 52.9941 -19.0606 91° East  Level FlightAware Approximate
Mon 04:27:00 AM 52.9914 -18.8206 91° East  Level FlightAware Approximate
Mon 04:28:00 AM 52.9883 -18.5807 91° East  Level FlightAware Approximate
Mon 04:29:00 AM 52.9846 -18.3408 91° East  Level FlightAware Approximate
Mon 04:30:00 AM 52.9805 -18.1010 92° East  Level FlightAware Approximate
Mon 04:31:00 AM 52.9758 -17.8612 92° East  Level FlightAware Approximate
Mon 04:32:00 AM 52.9707 -17.6214 92° East  Level FlightAware Approximate
Mon 04:33:00 AM 52.9652 -17.3817 92° East  Level FlightAware Approximate
Mon 04:34:00 AM 52.9591 -17.1421 92° East  Level FlightAware Approximate
Mon 04:35:00 AM 52.9525 -16.9026 93° East  Level FlightAware Approximate
Mon 04:36:00 AM 52.9455 -16.6631 93° East  Level FlightAware Approximate
Mon 04:37:00 AM 52.9380 -16.4237 93° East  Level FlightAware Approximate
Mon 04:38:00 AM 52.9300 -16.1844 93° East  Level FlightAware Approximate
Mon 04:39:00 AM 52.9216 -15.9452 93° East  Level FlightAware Approximate
Mon 04:40:00 AM 52.9126 -15.7061 93° East  Level FlightAware Approximate
Mon 04:41:00 AM 52.9032 -15.4671 94° East  Level FlightAware Approximate
Mon 04:42:00 AM 52.8932 -15.2282 94° East  Level FlightAware Approximate
Mon 04:43:00 AM 52.8829 -14.9894 94° East  Level FlightAware Approximate
Mon 04:44:00 AM 52.8726 -14.7506 94° East  Level FlightAware Approximate
Mon 04:45:00 AM 52.8619 -14.5119 94° East  Level FlightAware Approximate
Mon 04:46:00 AM 52.8507 -14.2734 94° East  Level FlightAware Approximate
Mon 04:47:00 AM 52.8390 -14.0350 95° East  Level FlightAware Approximate
Mon 04:48:00 AM 52.8268 -13.7968 95° East  Level FlightAware Approximate
Mon 04:49:00 AM 52.8141 -13.5587 95° East  Level FlightAware Approximate
Mon 04:50:00 AM 52.8010 -13.3207 95° East  Level FlightAware Approximate
Mon 04:51:00 AM 52.7874 -13.0828 95° East  Level FlightAware Approximate
Mon 04:52:00 AM 52.7733 -12.8451 95° East  Level FlightAware Approximate
Mon 04:53:00 AM 52.7588 -12.6076 96° East  Level FlightAware Approximate
Mon 04:54:00 AM 52.7437 -12.3702 96° East  Level FlightAware Approximate
Mon 04:55:00 AM 52.7282 -12.1330 96° East  Level FlightAware Approximate
Mon 04:56:00 AM 52.7122 -11.8960 96° East  Level FlightAware Approximate
Mon 04:57:00 AM 52.6958 -11.6591 96° East  Level FlightAware Approximate
Mon 04:58:00 AM 52.6789 -11.4225 97° East  Level FlightAware Approximate
Mon 04:59:00 AM 52.6615 -11.1860 97° East  Level FlightAware Approximate
Mon 05:00:00 AM 52.6440 -10.9496 97° East  Level FlightAware Approximate
Mon 05:01:00 AM 52.6267 -10.7133 97° East  Level FlightAware Approximate
Mon 05:02:00 AM 52.6090 -10.4771 97° East  Level FlightAware Approximate
Mon 05:03:00 AM 52.5908 -10.2412 97° East  Level FlightAware Approximate
Mon 05:04:00 AM 52.5722 -10.0054 97° East  Level FlightAware Approximate
Mon 05:05:00 AM 52.5530 -9.7699 98° East  Level FlightAware Approximate
Mon 05:06:00 AM 52.5328 -9.5347 98° East  Level FlightAware Approximate
Mon 05:07:00 AM 52.5120 -9.2998 98° East  Level FlightAware Approximate
Mon 05:07:00 AM 52.5120 -8.9813 98° East 494 568 43,400  Level FlightAware UK
Mon 05:07:18 AM 52.5040 -8.9092 100° East 494 568 43,500  Climbing FlightAware UK
Mon 05:07:36 AM 52.4957 -8.8369 101° East 502 578 43,400 -167 Descending FlightAware UK
Mon 05:07:54 AM 52.4874 -8.7649 101° East 494 568 43,400 167 Level FlightAware UK
Mon 05:08:12 AM 52.4792 -8.6932 101° East 492 566 43,500  Climbing FlightAware UK
Mon 05:08:30 AM 52.4710 -8.6218 101° East 494 568 43,400  Descending FlightAware UK
Mon 05:08:48 AM 52.4626 -8.5503 101° East 494 568 43,500 -333 Climbing FlightAware UK
Mon 05:09:06 AM 52.4542 -8.4788 101° East 492 566 43,200 -1,000 Descending FlightAware UK
Mon 05:09:24 AM 52.4457 -8.4076 101° East 486 559 42,900 -1,000 Descending FlightAware UK
Mon 05:09:42 AM 52.4372 -8.3369 101° East 480 552 42,600 -1,000 Descending FlightAware UK
Mon 05:10:00 AM 52.4287 -8.2664 101° East 478 550 42,300 -1,000 Descending FlightAware UK
Mon 05:10:18 AM 52.4204 -8.1971 101° East 480 552 42,000 -1,000 Descending FlightAware UK
Mon 05:10:36 AM 52.4120 -8.1273 101° East 482 555 41,700 -1,000 Descending FlightAware UK
Mon 05:10:54 AM 52.4037 -8.0571 101° East 476 548 41,400 -1,000 Descending FlightAware UK
Mon 05:11:12 AM 52.3952 -7.9860 101° East 484 557 41,100 -1,000 Descending FlightAware UK
Mon 05:11:30 AM 52.3861 -7.9139 102° East 488 562 40,800 -1,167 Descending FlightAware UK
Mon 05:11:48 AM 52.3771 -7.8418 102° East 488 562 40,400 -1,333 Descending FlightAware UK
Mon 05:12:06 AM 52.3682 -7.7700 102° East 486 559 40,000 -1,667 Descending FlightAware UK
Mon 05:12:24 AM 52.3593 -7.6987 102° East 482 555 39,400 -1,833 Descending FlightAware UK
Mon 05:12:42 AM 52.3503 -7.6286 102° East 482 555 38,900 -1,833 Descending FlightAware UK
Mon 05:13:00 AM 52.3413 -7.5583 102° East 482 555 38,300 -2,167 Descending FlightAware UK
Mon 05:13:18 AM 52.3324 -7.4877 102° East 476 548 37,600 -2,167 Descending FlightAware UK
Mon 05:13:36 AM 52.3235 -7.4170 102° East 476 548 37,000 -1,833 Descending FlightAware UK
Mon 05:13:54 AM 52.3144 -7.3453 102° East 482 555 36,500 -2,000 Descending FlightAware UK
Mon 05:14:12 AM 52.3048 -7.2712 102° East 474 545 35,800 -2,167 Descending FlightAware UK
Mon 05:14:30 AM 52.2953 -7.1984 102° East 478 550 35,200 -2,000 Descending FlightAware UK
Mon 05:14:48 AM 52.2857 -7.1244 102° East 488 562 34,600 -2,000 Descending FlightAware UK
Mon 05:15:06 AM 52.2763 -7.0516 102° East 470 541 34,000 -2,000 Descending FlightAware UK
Mon 05:15:24 AM 52.2668 -6.9788 102° East 470 541 33,400 -2,000 Descending FlightAware UK
Mon 05:15:42 AM 52.2573 -6.9054 102° East 472 543 32,800 -2,000 Descending FlightAware UK
Mon 05:16:00 AM 52.2476 -6.8314 102° East 476 548 32,200 -2,000 Descending FlightAware UK
Mon 05:16:18 AM 52.2376 -6.7571 102° East 470 541 31,600 -1,167 Descending FlightAware UK
Mon 05:16:36 AM 52.2276 -6.6824 102° East 476 548 31,500 -167 Descending FlightAware UK
Mon 05:16:54 AM 52.2175 -6.6070 102° East 478 550 31,500  Level FlightAware UK
Mon 05:17:12 AM 52.2072 -6.5314 103° East 482 555 31,500  Level FlightAware UK
Mon 05:17:30 AM 52.1970 -6.4559 102° East 480 552 31,500  Level FlightAware UK
Mon 05:17:48 AM 52.1868 -6.3806 102° East 480 552 31,500  Level FlightAware UK
Mon 05:18:06 AM 52.1765 -6.3055 103° East 480 552 31,500  Level FlightAware UK
Mon 05:18:30 AM 52.1625 -6.2058 103° East 478 550 31,500  Level FlightAware UK
Mon 05:18:48 AM 52.1520 -6.1314 103° East 474 545 31,500  Level FlightAware UK
Mon 05:19:06 AM 52.1396 -6.0589 106° East 476 548 31,500  Level FlightAware UK
Mon 05:19:24 AM 52.1266 -5.9862 106° East 478 550 31,500  Level FlightAware UK
Mon 05:19:42 AM 52.1134 -5.9124 106° East 480 552 31,500  Level FlightAware UK
Mon 05:20:00 AM 52.1004 -5.8394 106° East 480 552 31,500  Level FlightAware UK
Mon 05:20:18 AM 52.0873 -5.7668 106° East 478 550 31,500  Level FlightAware UK
Mon 05:20:36 AM 52.0742 -5.6946 106° East 476 548 31,500  Level FlightAware UK
Mon 05:20:54 AM 52.0612 -5.6227 106° East 472 543 31,500  Level FlightAware UK
Mon 05:21:12 AM 52.0481 -5.5509 107° East 474 545 31,500  Level FlightAware UK
Mon 05:21:30 AM 52.0349 -5.4792 107° East 476 548 31,500  Level FlightAware UK
Mon 05:21:48 AM 52.0217 -5.4073 107° East 476 548 31,500  Level FlightAware UK
Mon 05:22:06 AM 52.0088 -5.3352 106° East 476 548 31,500  Level FlightAware UK
Mon 05:22:24 AM 51.9956 -5.2632 106° East 476 548 31,500  Level FlightAware UK
Mon 05:22:48 AM 51.9777 -5.1671 107° East 476 548 31,500  Level FlightAware UK
Mon 05:23:06 AM 51.9641 -5.0950 107° East 474 545 31,500  Level FlightAware UK
Mon 05:23:24 AM 51.9506 -5.0229 107° East 478 550 31,500  Level FlightAware UK
Mon 05:23:42 AM 51.9370 -4.9507 107° East 478 550 31,500  Level FlightAware UK
Mon 05:24:00 AM 51.9233 -4.8777 107° East 478 550 31,500  Level FlightAware UK
Mon 05:24:18 AM 51.9096 -4.8053 107° East 478 550 31,500  Level FlightAware UK
Mon 05:24:36 AM 51.8958 -4.7329 107° East 478 550 31,500  Level FlightAware UK
Mon 05:24:54 AM 51.8818 -4.6606 107° East 480 552 31,500  Level FlightAware UK
Mon 05:25:18 AM 51.8633 -4.5643 107° East 478 550 31,500  Level FlightAware UK
Mon 05:25:36 AM 51.8494 -4.4924 107° East 478 550 31,500  Level FlightAware UK
Mon 05:26:12 AM 51.8219 -4.3495 107° East 478 550 31,500  Level FlightAware UK
Mon 05:26:30 AM 51.8081 -4.2782 107° East 476 548 31,500  Level FlightAware UK
Mon 05:27:00 AM 51.7850 -4.1598 108° East 474 545 31,500  Level FlightAware UK
Mon 05:27:24 AM 51.7663 -4.0651 108° East 474 545 31,500  Level FlightAware UK
Mon 05:27:43 AM 51.7522 -3.9930 108° East 476 548 31,500 -1,116 Level FlightAware UK
Mon 05:28:07 AM 51.7334 -3.8976 108° East 478 550 30,700 -1,875 Descending FlightAware UK
Mon 05:29:19 AM 51.6776 -3.6180 108° East 458 527 28,500 -1,800 Descending FlightAware UK
Mon 05:29:37 AM 51.6641 -3.5510 108° East 456 525 28,000 -1,667 Descending FlightAware UK
Mon 05:30:13 AM 51.6372 -3.4183 108° East 450 518 27,000 -1,800 Descending FlightAware UK
Mon 05:30:37 AM 51.6193 -3.3296 108° East 448 516 26,200 -1,857 Descending FlightAware UK
Mon 05:30:55 AM 51.6080 -3.2634 105° East 444 511 25,700 -1,667 Descending FlightAware UK
Mon 05:31:13 AM 51.5979 -3.1970 104° East 440 506 25,200 -1,714 Descending FlightAware UK
Mon 05:31:37 AM 51.5864 -3.1087 102° East 434 499 24,500 -1,714 Descending FlightAware UK
Mon 05:31:55 AM 51.5778 -3.0428 102° East 434 499 24,000 -1,750 Descending FlightAware UK
Mon 05:32:49 AM 51.5517 -2.8467 102° East 424 488 22,400 -1,750 Descending FlightAware UK
Mon 05:33:07 AM 51.5431 -2.7831 102° East 424 488 21,900 -1,500 Descending FlightAware UK
Mon 05:33:25 AM 51.5345 -2.7194 102° East 420 483 21,500 -1,571 Descending FlightAware UK
Mon 05:33:49 AM 51.5232 -2.6359 102° East 412 474 20,800 -1,750 Descending FlightAware UK
Mon 05:34:13 AM 51.5117 -2.5522 102° East 410 472 20,100 -1,636 Descending FlightAware UK
Mon 05:34:55 AM 51.4918 -2.4080 102° East 404 465 19,000 -1,600 Descending FlightAware UK
Mon 05:35:13 AM 51.4833 -2.3466 103° East 404 465 18,500 -1,625 Descending FlightAware UK
Mon 05:35:43 AM 51.4694 -2.2462 102° East 396 456 17,700 -1,469 Descending FlightAware UK
Mon 05:36:02 AM 51.4609 -2.1862 103° East 392 451 17,300 -1,535 Descending FlightAware UK
Mon 05:36:26 AM 51.4497 -2.1072 103° East 390 449 16,600 -1,571 Descending FlightAware UK
Mon 05:36:44 AM 51.4414 -2.0483 103° East 386 444 16,200 -1,500 Descending FlightAware UK
Mon 05:37:02 AM 51.4330 -1.9897 103° East 384 442 15,700 -1,667 Descending FlightAware UK
Mon 05:37:20 AM 51.4247 -1.9316 103° East 382 440 15,200 -1,500 Descending FlightAware UK
Mon 05:37:38 AM 51.4165 -1.8734 103° East 380 437 14,800 -1,333 Descending FlightAware UK
Mon 05:37:56 AM 51.4083 -1.8163 103° East 378 435 14,400 -1,500 Descending FlightAware UK
Mon 05:38:38 AM 51.3893 -1.6849 103° East 372 428 13,300 -1,357 Descending FlightAware UK
Mon 05:39:20 AM 51.3706 -1.5562 103° East 366 421 12,500 -500 Descending FlightAware UK
Mon 05:40:14 AM 51.3461 -1.3915 103° East 366 421 12,500  Level FlightAware UK
Mon 05:40:38 AM 51.3356 -1.3198 103° East 344 396 12,500 -286 Level FlightAware UK
Mon 05:40:56 AM 51.3282 -1.2705 104° East 318 366 12,300 -857 Descending FlightAware UK
Mon 05:41:20 AM 51.3187 -1.2080 104° East 302 348 11,900 -1,000 Descending FlightAware UK
Mon 05:41:38 AM 51.3140 -1.1622 99° East 292 336 11,600 -1,000 Descending FlightAware UK
Mon 05:41:56 AM 51.3124 -1.1167 93° East 286 329 11,300 -833 Descending FlightAware UK
Mon 05:42:14 AM 51.3121 -1.0727 90° East 274 315 11,100 -667 Descending FlightAware UK
Mon 05:42:32 AM 51.3118 -1.0303 91° East 260 299 10,900 -606 Descending FlightAware UK
Mon 05:44:03 AM 51.3099 -0.8340 91° East 238 274 10,000 -694 Descending FlightAware UK
Mon 05:44:33 AM 51.3092 -0.7716 91° East 234 269 9,500 -643 Descending FlightAware UK
Mon 05:45:27 AM 51.3078 -0.6599 91° East 234 269 9,100 -563 Descending FlightAware UK
Mon 05:46:09 AM 51.3066 -0.5731 91° East 232 267 8,600 -700 Descending FlightAware UK
Mon 05:46:27 AM 51.3062 -0.5365 91° East 232 267 8,400 -786 Descending FlightAware UK
Mon 05:47:33 AM 51.3140 -0.3958 85° East 256 295 7,500 -563 Descending FlightAware UK
Mon 05:48:03 AM 51.3453 -0.3609 35° Northeast 254 292 7,500 -500 Level FlightAware UK
Mon 05:48:21 AM 51.3650 -0.3425 30° Northeast 254 292 7,100 -1,500 Descending FlightAware UK
Mon 05:49:15 AM 51.4272 -0.3219 12° North 248 285 5,700 -1,467 Descending FlightAware UK
Mon 05:49:51 AM 51.4685 -0.3159 North 250 288 4,900 -1,333 Descending FlightAware UK
Mon 05:50:09 AM 51.4880 -0.3121 North 244 281 4,500 -1,125 Descending FlightAware UK
Mon 05:50:39 AM 51.5190 -0.3148 357° North 222 255 4,000 -1,182 Descending FlightAware UK
Mon 05:51:15 AM 51.5549 -0.3209 354° North 222 255 3,200 -1,444 Descending FlightAware UK
Mon 05:51:33 AM 51.5726 -0.3239 354° North 212 244 2,700 -1,833 Descending FlightAware UK
Mon 05:51:51 AM 51.5902 -0.3221 North 222 255 2,100 -1,429 Descending FlightAware UK
Mon 05:52:15 AM 51.6111 -0.2979 36° Northeast 218 251 1,700 -1,000 Descending FlightAware UK
Mon 05:52:33 AM 51.6258 -0.2787 39° Northeast 212 244 1,400 -222 Descending FlightAware UK
Mon 05:53:09 AM 51.6430 -0.2275 62° Northeast 212 244 1,500 -91 Climbing FlightAware UK
Mon 05:53:39 AM 51.6247 -0.1972 134° Southeast 182 209 1,300 -750 Descending FlightAware UK
Mon 05:53:57 AM 51.6107 -0.2026 193° South 182 209 900 -857 Descending FlightAware UK
Mon 05:54:21 AM 51.5988 -0.2245 229° Southwest 182 209 700 -625 Descending FlightAware UK
Mon 05:54:45 AM 51.5911 -0.2498 244° Southwest 182 209 400 -375 Descending FlightAware UK
Mon 05:55:09 AM 51.5850 -0.2770 250° West 180 207 400  Level FlightAware UK

Login

Don't have an account? Register now (free) for customized features, flight alerts, and more!